Time;durP1;ratioP1;P1;durP2;ratioP2;P2;SDS_P1;SDS_P2;PMS_P1;PMS_P2;Temp;Humidity;BMP_temperature;BMP_pressure;BME280_temperature;BME280_humidity;BME280_pressure;Samples;Min_cycle;Max_cycle;Signal;HPM_P1;HPM_P2
2024/01/28 00:00:20;;;;;;;0.10;0.10;;;;;;;0.53;100.00;100948.78;5034792;28;20244;-52
2024/01/28 00:03:07;;;;;;;0.10;0.10;;;;;;;0.42;100.00;100946.13;5034503;28;20228;-53
2024/01/28 00:05:55;;;;;;;0.10;0.10;;;;;;;0.50;100.00;100946.16;5033357;28;20339;-52
2024/01/28 00:08:41;;;;;;;0.10;0.10;;;;;;;0.45;100.00;100951.34;5042191;28;20203;-52
2024/01/28 00:11:29;;;;;;;0.10;0.10;;;;;;;0.44;100.00;100946.13;5054429;28;20192;-52
2024/01/28 00:14:17;;;;;;;0.10;0.10;;;;;;;0.36;100.00;100934.78;5054300;28;20274;-52
2024/01/28 00:17:04;;;;;;;0.10;0.10;;;;;;;0.37;100.00;100937.38;5054141;28;20196;-52
2024/01/28 00:19:54;;;;;;;0.10;0.10;;;;;;;0.51;100.00;100946.19;5054318;28;20192;-52
2024/01/28 00:22:41;;;;;;;0.10;0.10;;;;;;;0.24;100.00;100941.66;5052991;28;20315;-52
2024/01/28 00:25:27;;;;;;;0.10;0.10;;;;;;;0.08;100.00;100931.97;5053795;28;20319;-52
2024/01/28 00:28:14;;;;;;;0.10;0.10;;;;;;;0.28;100.00;100927.78;5054072;28;20288;-52
2024/01/28 00:31:03;;;;;;;0.10;0.10;;;;;;;0.38;100.00;100935.66;5038994;28;20670;-52
2024/01/28 00:33:50;;;;;;;0.10;0.10;;;;;;;0.51;100.00;100930.53;5053753;28;20224;-52
2024/01/28 00:36:37;;;;;;;0.10;0.10;;;;;;;0.64;100.00;100925.38;5037238;28;20238;-52
2024/01/28 00:39:24;;;;;;;0.10;0.10;;;;;;;0.26;100.00;100923.41;5047054;28;20200;-52
2024/01/28 00:42:11;;;;;;;0.10;0.10;;;;;;;0.21;100.00;100925.16;5053848;28;20200;-52
2024/01/28 00:44:58;;;;;;;0.10;0.10;;;;;;;0.11;100.00;100923.34;5053835;28;20316;-52
2024/01/28 00:47:46;;;;;;;0.10;0.10;;;;;;;0.13;100.00;100926.81;5053814;28;20262;-52
2024/01/28 00:50:33;;;;;;;0.10;0.10;;;;;;;0.28;100.00;100927.78;5032585;28;20201;-52
2024/01/28 00:53:21;;;;;;;0.10;0.10;;;;;;;0.36;100.00;100922.63;5033656;28;20283;-52
2024/01/28 00:56:08;;;;;;;0.10;0.10;;;;;;;0.37;100.00;100913.06;5033661;28;20200;-52
2024/01/28 00:58:55;;;;;;;0.10;0.10;;;;;;;0.52;100.00;100908.81;5042314;28;20208;-52
2024/01/28 01:01:42;;;;;;;0.10;0.10;;;;;;;0.49;100.00;100911.41;5053698;28;20698;-52
2024/01/28 01:04:30;;;;;;;0.10;0.10;;;;;;;0.68;100.00;100904.56;5053093;28;20227;-53
2024/01/28 01:07:17;;;;;;;0.10;0.10;;;;;;;0.39;100.00;100903.53;5052068;28;20204;-51
2024/01/28 01:10:05;;;;;;;0.10;0.10;;;;;;;0.32;100.00;100907.84;5053416;28;20217;-52
2024/01/28 01:12:51;;;;;;;0.10;0.10;;;;;;;0.48;100.00;100901.84;5053276;28;20224;-52
2024/01/28 01:15:38;;;;;;;0.10;0.10;;;;;;;0.38;100.00;100899.16;5053104;28;20196;-52
2024/01/28 01:18:25;;;;;;;0.10;0.10;;;;;;;0.44;100.00;100914.84;5053119;28;20192;-52
2024/01/28 01:21:14;;;;;;;0.10;0.10;;;;;;;0.40;100.00;100906.16;5036765;28;20204;-52
2024/01/28 01:24:00;;;;;;;0.10;0.10;;;;;;;0.46;100.00;100906.16;5053240;28;20191;-52
2024/01/28 01:26:47;;;;;;;0.10;0.10;;;;;;;0.63;100.00;100911.47;5053177;28;20195;-52
2024/01/28 01:29:34;;;;;;;0.10;0.10;;;;;;;0.60;100.00;100903.66;5052426;28;20262;-52
2024/01/28 01:32:21;;;;;;;0.10;0.10;;;;;;;0.75;100.00;100893.25;5053129;28;20305;-52
2024/01/28 01:35:09;;;;;;;0.00;0.00;;;;;;;0.49;100.00;100887.94;5053094;28;20234;-52
2024/01/28 01:37:58;;;;;;;0.10;0.10;;;;;;;0.66;100.00;100890.59;5052169;28;20200;-52
2024/01/28 01:40:44;;;;;;;0.10;0.10;;;;;;;0.25;100.00;100877.38;5053034;28;20682;-52
2024/01/28 01:43:31;;;;;;;0.10;0.10;;;;;;;0.70;100.00;100874.13;5052861;28;20195;-52
2024/01/28 01:46:18;;;;;;;0.10;0.10;;;;;;;0.38;100.00;100871.38;5052904;28;20192;-52
2024/01/28 01:49:06;;;;;;;0.10;0.10;;;;;;;0.35;100.00;100871.34;5052817;28;20208;-52
2024/01/28 01:51:52;;;;;;;0.10;0.10;;;;;;;0.15;100.00;100866.03;5051599;28;20187;-52
2024/01/28 01:54:40;;;;;;;0.10;0.10;;;;;;;0.21;100.00;100858.28;5052479;28;20309;-52
2024/01/28 01:57:28;;;;;;;0.10;0.10;;;;;;;0.41;100.00;100874.00;5052732;28;20204;-52
2024/01/28 02:00:16;;;;;;;0.10;0.10;;;;;;;0.24;100.00;100870.44;5052664;28;20350;-52
2024/01/28 02:03:03;;;;;;;0.10;0.10;;;;;;;0.33;100.00;100874.81;5052596;28;20188;-52
2024/01/28 02:05:50;;;;;;;0.10;0.10;;;;;;;0.44;100.00;100865.31;5051381;28;20266;-52
2024/01/28 02:08:37;;;;;;;0.10;0.10;;;;;;;0.43;100.00;100861.84;5052493;28;20663;-52
2024/01/28 02:11:25;;;;;;;0.10;0.10;;;;;;;0.62;100.00;100857.59;5052580;28;20280;-52
2024/01/28 02:14:21;;;;;;;0.10;0.10;;;;;;;0.56;100.00;100857.53;5052445;28;20235;-52
2024/01/28 02:17:09;;;;;;;0.10;0.10;;;;;;;0.40;100.00;100859.25;5052131;28;20200;-52
2024/01/28 02:19:56;;;;;;;0.10;0.10;;;;;;;0.21;100.00;100854.78;5052599;28;20671;-52
2024/01/28 02:22:43;;;;;;;0.10;0.10;;;;;;;0.24;100.00;100855.66;5051268;28;20192;-52
2024/01/28 02:25:31;;;;;;;0.10;0.10;;;;;;;0.07;100.00;100849.50;5052307;28;20209;-52
2024/01/28 02:28:18;;;;;;;0.10;0.10;;;;;;;-0.05;100.00;100847.69;5052440;28;20196;-52
2024/01/28 02:31:05;;;;;;;0.10;0.10;;;;;;;-0.12;100.00;100853.72;5052495;28;20208;-52
2024/01/28 02:33:52;;;;;;;0.10;0.10;;;;;;;-0.12;100.00;100851.09;5051962;28;20254;-52
2024/01/28 02:36:39;;;;;;;0.10;0.10;;;;;;;-0.20;100.00;100837.16;5050693;28;20243;-52
2024/01/28 02:39:26;;;;;;;0.10;0.10;;;;;;;-0.06;100.00;100842.47;5051811;28;20199;-52
2024/01/28 02:42:14;;;;;;;0.10;0.10;;;;;;;0.35;100.00;100840.09;5052118;28;20223;-52
2024/01/28 02:45:01;;;;;;;0.10;0.10;;;;;;;0.72;100.00;100829.81;5052433;28;20303;-53
2024/01/28 02:47:47;;;;;;;0.10;0.10;;;;;;;0.33;100.00;100835.75;5052649;28;20435;-52
2024/01/28 02:50:34;;;;;;;0.10;0.10;;;;;;;0.24;100.00;100832.22;5034790;28;20208;-52
2024/01/28 02:53:21;;;;;;;0.10;0.10;;;;;;;0.60;100.00;100829.78;5035995;28;20781;-52
2024/01/28 02:56:08;;;;;;;0.10;0.10;;;;;;;0.20;100.00;100824.41;5036118;28;20686;-52
2024/01/28 02:58:56;;;;;;;0.10;0.10;;;;;;;0.27;100.00;100818.31;5042715;28;20200;-52
2024/01/28 03:01:46;;;;;;;0.10;0.10;;;;;;;0.33;100.00;100825.31;5055701;28;20193;-52
2024/01/28 03:04:36;;;;;;;0.10;0.10;;;;;;;-0.16;100.00;100819.84;5055404;28;20227;-52
2024/01/28 03:07:24;;;;;;;0.10;0.10;;;;;;;0.07;100.00;100813.03;5054335;28;20267;-52
2024/01/28 03:10:10;;;;;;;0.10;0.10;;;;;;;-0.27;100.00;100814.56;5055664;28;20208;-53
2024/01/28 03:12:57;;;;;;;0.10;0.10;;;;;;;-0.59;100.00;100814.31;5055696;28;20243;-52
2024/01/28 03:15:45;;;;;;;0.10;0.10;;;;;;;-0.48;100.00;100817.00;5055478;28;20189;-52
2024/01/28 03:18:32;;;;;;;0.10;0.10;;;;;;;-0.30;100.00;100811.94;5055424;28;20671;-52
2024/01/28 03:21:19;;;;;;;0.10;0.10;;;;;;;-0.28;100.00;100815.44;5054193;28;20204;-52
2024/01/28 03:24:06;;;;;;;0.10;0.10;;;;;;;-0.27;100.00;100819.78;5055069;28;20192;-52
2024/01/28 03:26:53;;;;;;;0.10;0.10;;;;;;;-0.41;100.00;100816.19;5055200;28;20196;-52
2024/01/28 03:29:40;;;;;;;0.10;0.10;;;;;;;-0.50;100.00;100814.38;5054672;28;20556;-52
2024/01/28 03:32:28;;;;;;;0.10;0.10;;;;;;;-0.41;100.00;100800.56;5055223;28;20278;-52
2024/01/28 03:35:15;;;;;;;0.10;0.10;;;;;;;-0.52;100.00;100805.69;5054923;28;20228;-51
2024/01/28 03:38:02;;;;;;;0.10;0.10;;;;;;;-0.53;100.00;100805.69;5055018;28;20208;-52
2024/01/28 03:40:49;;;;;;;0.10;0.10;;;;;;;-0.45;100.00;100804.03;5055069;28;20200;-52
2024/01/28 03:43:36;;;;;;;0.10;0.10;;;;;;;-0.42;100.00;100811.84;5039944;28;20327;-52
2024/01/28 03:46:23;;;;;;;0.00;0.00;;;;;;;-0.30;100.00;100818.00;5054977;28;20226;-52
2024/01/28 03:49:11;;;;;;;0.10;0.10;;;;;;;-0.04;100.00;100814.69;5054840;28;20200;-52
2024/01/28 03:51:59;;;;;;;0.10;0.10;;;;;;;-0.34;100.00;100815.38;5053552;28;20231;-52
2024/01/28 03:54:45;;;;;;;0.10;0.10;;;;;;;-0.38;100.00;100809.28;5054605;28;20220;-52
2024/01/28 03:57:32;;;;;;;0.10;0.10;;;;;;;-0.28;100.00;100805.03;5054735;28;20289;-52
2024/01/28 04:00:21;;;;;;;0.10;0.10;;;;;;;-0.01;100.00;100807.75;5053878;28;20196;-52
2024/01/28 04:03:08;;;;;;;0.10;0.10;;;;;;;-0.55;100.00;100810.03;5054355;28;20232;-52
2024/01/28 04:05:56;;;;;;;0.10;0.10;;;;;;;-0.75;100.00;100812.47;5038135;28;20184;-53
2024/01/28 04:08:43;;;;;;;0.10;0.10;;;;;;;-0.78;100.00;100810.69;5054506;28;20204;-52
2024/01/28 04:11:30;;;;;;;0.10;0.10;;;;;;;-0.75;100.00;100810.72;5054511;28;20691;-52
2024/01/28 04:14:17;;;;;;;0.10;0.10;;;;;;;-0.62;100.00;100807.38;5054226;28;20208;-52
2024/01/28 04:17:04;;;;;;;0.10;0.10;;;;;;;-0.67;100.00;100805.59;5054150;28;20238;-52
2024/01/28 04:19:51;;;;;;;0.10;0.10;;;;;;;-0.68;100.00;100809.03;5053886;28;20278;-52
2024/01/28 04:22:40;;;;;;;0.10;0.10;;;;;;;-0.38;100.00;100805.81;5052481;28;20267;-52
2024/01/28 04:25:27;;;;;;;0.10;0.10;;;;;;;-0.41;100.00;100803.19;5053838;28;20180;-52
2024/01/28 04:28:14;;;;;;;0.10;0.10;;;;;;;-0.57;100.00;100796.13;5053839;28;20200;-52
2024/01/28 04:31:02;;;;;;;0.10;0.10;;;;;;;-0.65;100.00;100791.75;5033829;28;20196;-52
2024/01/28 04:33:49;;;;;;;0.10;0.10;;;;;;;-0.70;100.00;100790.81;5033717;28;20204;-52
2024/01/28 04:36:36;;;;;;;0.10;0.10;;;;;;;-0.85;100.00;100797.63;5032389;28;20240;-52
2024/01/28 04:39:25;;;;;;;0.10;0.10;;;;;;;-0.97;100.00;100788.84;5042797;28;20316;-52
2024/01/28 04:42:12;;;;;;;0.10;0.10;;;;;;;-0.70;100.00;100783.00;5053082;28;20292;-52
2024/01/28 04:44:58;;;;;;;0.10;0.10;;;;;;;-0.80;100.00;100781.19;5053472;28;20191;-52
2024/01/28 04:47:46;;;;;;;0.10;0.10;;;;;;;-0.71;100.00;100778.66;5053397;28;20196;-52
2024/01/28 04:50:32;;;;;;;0.10;0.10;;;;;;;-0.51;100.00;100789.22;5052404;28;20204;-52
2024/01/28 04:53:19;;;;;;;0.10;0.10;;;;;;;-0.08;100.00;100792.13;5053780;28;20196;-52
2024/01/28 04:56:07;;;;;;;0.03;0.03;;;;;;;-0.38;100.00;100785.00;5053407;28;20312;-52
2024/01/28 04:58:54;;;;;;;0.00;0.00;;;;;;;-0.18;100.00;100788.59;5053545;28;20188;-51
2024/01/28 05:01:41;;;;;;;0.10;0.10;;;;;;;-0.23;100.00;100785.06;5053684;28;20196;-52
2024/01/28 05:04:28;;;;;;;0.10;0.10;;;;;;;-0.20;100.00;100771.19;5053265;28;20302;-52
2024/01/28 05:07:16;;;;;;;0.10;0.10;;;;;;;-0.09;100.00;100775.63;5052143;28;20204;-52
2024/01/28 05:10:04;;;;;;;0.10;0.10;;;;;;;-0.23;100.00;100771.19;5053363;28;20219;-52
2024/01/28 05:12:52;;;;;;;0.10;0.10;;;;;;;-0.27;100.00;100775.53;5053374;28;20208;-52
2024/01/28 05:15:39;;;;;;;0.10;0.10;;;;;;;-0.35;100.00;100775.47;5053077;28;20255;-53
2024/01/28 05:18:26;;;;;;;0.10;0.10;;;;;;;-0.53;100.00;100780.53;5053113;28;20193;-52
2024/01/28 05:21:13;;;;;;;0.10;0.10;;;;;;;0.38;100.00;100774.06;5051883;28;20310;-52
2024/01/28 05:24:00;;;;;;;0.10;0.10;;;;;;;-0.42;100.00;100773.69;5053269;28;20220;-52
2024/01/28 05:26:48;;;;;;;0.00;0.00;;;;;;;-0.31;100.00;100769.41;5052556;28;20197;-52
2024/01/28 05:29:37;;;;;;;0.10;0.10;;;;;;;0.13;100.00;100770.50;5052988;28;20203;-52
2024/01/28 05:32:24;;;;;;;0.10;0.10;;;;;;;-0.18;100.00;100759.09;5053026;28;20319;-52
2024/01/28 05:35:11;;;;;;;0.10;0.10;;;;;;;0.27;100.00;100761.88;5052455;28;20339;-52
2024/01/28 05:37:58;;;;;;;0.10;0.10;;;;;;;-0.36;100.00;100758.09;5053162;28;20200;-52
2024/01/28 05:40:45;;;;;;;0.10;0.10;;;;;;;0.25;100.00;100760.13;5053206;28;20196;-53
2024/01/28 05:43:32;;;;;;;0.10;0.10;;;;;;;-0.08;100.00;100745.25;5052804;28;20192;-52
2024/01/28 05:46:20;;;;;;;0.10;0.10;;;;;;;-0.26;100.00;100748.63;5052916;28;20671;-52
2024/01/28 05:49:10;;;;;;;0.10;0.10;;;;;;;-0.27;100.00;100749.50;5052881;28;20323;-52
2024/01/28 05:51:57;;;;;;;0.10;0.10;;;;;;;-0.08;100.00;100746.13;5051432;28;20195;-52
2024/01/28 05:54:44;;;;;;;0.10;0.10;;;;;;;-0.30;100.00;100758.13;5052968;28;20196;-52
2024/01/28 05:57:31;;;;;;;0.10;0.10;;;;;;;0.03;100.00;100755.72;5052867;28;20267;-52
2024/01/28 06:00:18;;;;;;;0.10;0.10;;;;;;;-0.21;100.00;100761.66;5052548;28;20207;-52
2024/01/28 06:03:06;;;;;;;0.10;0.10;;;;;;;0.05;100.00;100767.88;5052617;28;20220;-52
2024/01/28 06:05:53;;;;;;;0.10;0.10;;;;;;;-0.04;100.00;100760.00;5051373;28;20204;-52
2024/01/28 06:08:42;;;;;;;0.10;0.10;;;;;;;-0.17;100.00;100761.69;5052360;28;20262;-52
2024/01/28 06:11:29;;;;;;;0.10;0.10;;;;;;;0.36;100.00;100755.81;5052788;28;20265;-52
2024/01/28 06:14:16;;;;;;;0.10;0.10;;;;;;;-0.14;100.00;100747.81;5052675;28;20196;-52
2024/01/28 06:17:04;;;;;;;0.07;0.07;;;;;;;-0.32;100.00;100761.59;5052097;28;20219;-52
2024/01/28 06:19:52;;;;;;;0.10;0.10;;;;;;;-0.41;100.00;100765.00;5052517;28;20216;-52
2024/01/28 06:22:39;;;;;;;0.10;0.10;;;;;;;-0.53;100.00;100758.84;5051706;28;20197;-52
2024/01/28 06:25:26;;;;;;;0.10;0.10;;;;;;;-0.63;100.00;100752.72;5056289;28;20223;-52
2024/01/28 06:28:13;;;;;;;0.10;0.10;;;;;;;-0.84;100.00;100750.84;5056483;28;20196;-52
2024/01/28 06:31:00;;;;;;;0.10;0.10;;;;;;;-0.94;100.00;100752.50;5036366;28;20197;-52
2024/01/28 06:33:47;;;;;;;0.10;0.10;;;;;;;-0.71;100.00;100747.44;5036152;28;20516;-51
2024/01/28 06:36:35;;;;;;;0.10;0.10;;;;;;;-0.94;100.00;100743.81;5038356;28;20307;-52
2024/01/28 06:39:22;;;;;;;0.10;0.10;;;;;;;-0.89;100.00;100748.19;5043485;28;20200;-52
2024/01/28 06:42:09;;;;;;;0.10;0.10;;;;;;;-0.72;100.00;100745.72;5056060;28;20192;-52
2024/01/28 06:44:56;;;;;;;0.10;0.10;;;;;;;-0.90;100.00;100749.03;5056196;28;20251;-52
2024/01/28 06:47:45;;;;;;;0.03;0.03;;;;;;;-0.74;100.00;100743.97;5056102;28;20200;-52
2024/01/28 06:50:32;;;;;;;0.10;0.10;;;;;;;-0.66;100.00;100745.78;5054495;28;20271;-52
2024/01/28 06:53:21;;;;;;;0.10;0.10;;;;;;;-0.87;100.00;100742.97;5056006;28;20203;-52
2024/01/28 06:56:08;;;;;;;0.10;0.10;;;;;;;-0.74;100.00;100746.56;5055720;28;20355;-52
2024/01/28 06:58:54;;;;;;;0.10;0.10;;;;;;;-0.88;100.00;100749.91;5055771;28;20200;-52
2024/01/28 07:01:41;;;;;;;0.10;0.10;;;;;;;-0.33;100.00;100750.31;5055773;28;20205;-52
2024/01/28 07:04:28;;;;;;;0.10;0.10;;;;;;;-0.84;100.00;100748.22;5055537;28;20238;-52
2024/01/28 07:07:15;;;;;;;0.10;0.10;;;;;;;-0.83;100.00;100751.69;5054321;28;20191;-52
2024/01/28 07:10:05;;;;;;;0.10;0.10;;;;;;;-0.94;100.00;100749.03;5055710;28;20195;-52
2024/01/28 07:12:51;;;;;;;0.10;0.10;;;;;;;-0.73;100.00;100746.56;5055663;28;20671;-53
2024/01/28 07:15:38;;;;;;;0.10;0.10;;;;;;;-0.59;100.00;100751.88;5055452;28;20290;-52
2024/01/28 07:18:25;;;;;;;0.00;0.00;;;;;;;-0.72;100.00;100750.03;5055628;28;20204;-52
2024/01/28 07:21:12;;;;;;;0.10;0.10;;;;;;;-0.85;100.00;100749.09;5052014;28;20203;-52
2024/01/28 07:24:00;;;;;;;0.10;0.10;;;;;;;-0.52;100.00;100748.44;5055456;28;20195;-52
2024/01/28 07:26:48;;;;;;;0.10;0.10;;;;;;;-0.51;100.00;100746.72;5054968;28;20215;-53
2024/01/28 07:29:35;;;;;;;0.10;0.10;;;;;;;-0.62;100.00;100755.31;5043454;28;20200;-52
2024/01/28 07:32:22;;;;;;;0.10;0.10;;;;;;;-0.08;100.00;100751.31;5055274;28;20196;-51
2024/01/28 07:35:09;;;;;;;0.10;0.10;;;;;;;-0.34;100.00;100750.31;5053984;28;20579;-52
2024/01/28 07:37:56;;;;;;;0.10;0.10;;;;;;;-0.03;100.00;100736.56;5055157;28;20213;-51
2024/01/28 07:40:43;;;;;;;0.10;0.10;;;;;;;-0.52;100.00;100738.03;5055062;28;20730;-52
2024/01/28 07:43:32;;;;;;;0.10;0.10;;;;;;;-0.47;100.00;100738.09;5055095;28;20200;-52
2024/01/28 07:46:19;;;;;;;0.10;0.10;;;;;;;-0.59;100.00;100738.84;5055026;28;20247;-52
2024/01/28 07:49:06;;;;;;;0.10;0.10;;;;;;;0.38;100.00;100745.41;5054967;28;20266;-52
2024/01/28 07:51:53;;;;;;;0.10;0.10;;;;;;;0.10;100.00;100752.28;5053586;28;20192;-52
2024/01/28 07:54:40;;;;;;;0.00;0.00;;;;;;;0.17;100.00;100746.19;5054917;28;20192;-52
2024/01/28 07:57:27;;;;;;;0.10;0.10;;;;;;;0.94;100.00;100737.69;5054507;28;20227;-52
2024/01/28 08:00:16;;;;;;;0.10;0.10;;;;;;;0.41;100.00;100738.47;5054649;28;20282;-52
2024/01/28 08:03:03;;;;;;;0.10;0.10;;;;;;;0.55;100.00;100748.94;5054098;28;20201;-52
2024/01/28 08:05:50;;;;;;;0.10;0.10;;;;;;;0.55;100.00;100749.78;5053397;28;20290;-52
2024/01/28 08:08:37;;;;;;;0.10;0.10;;;;;;;0.38;100.00;100742.78;5054550;28;20192;-52
2024/01/28 08:11:24;;;;;;;0.10;0.10;;;;;;;0.36;100.00;100744.53;5054252;28;20193;-52
2024/01/28 08:14:11;;;;;;;0.10;0.10;;;;;;;1.25;100.00;100725.50;5054410;28;20196;-52
2024/01/28 08:16:59;;;;;;;0.10;0.10;;;;;;;1.04;100.00;100735.94;5054229;28;20339;-52
2024/01/28 08:19:46;;;;;;;0.10;0.10;;;;;;;1.83;100.00;100733.22;5054389;28;20196;-52
2024/01/28 08:22:33;;;;;;;0.10;0.10;;;;;;;1.80;100.00;100742.81;5053059;28;20188;-53
2024/01/28 08:25:20;;;;;;;0.10;0.10;;;;;;;1.59;100.00;100731.53;5054365;28;20199;-52
2024/01/28 08:28:07;;;;;;;0.10;0.10;;;;;;;1.56;100.00;100735.91;5053714;28;20208;-52
2024/01/28 08:30:54;;;;;;;0.10;0.10;;;;;;;2.10;100.00;100726.16;5054168;28;20242;-52
2024/01/28 08:33:42;;;;;;;0.10;0.10;;;;;;;2.17;100.00;100726.13;5054150;28;20192;-52
2024/01/28 08:36:28;;;;;;;0.10;0.10;;;;;;;2.46;100.00;100725.97;5052660;28;20224;-52
2024/01/28 08:39:15;;;;;;;0.10;0.10;;;;;;;1.93;100.00;100726.22;5053902;28;20200;-52
2024/01/28 08:42:02;;;;;;;0.10;0.10;;;;;;;2.25;100.00;100724.34;5053917;28;20211;-53
2024/01/28 08:44:49;;;;;;;0.10;0.10;;;;;;;2.01;100.00;100729.66;5053982;28;20196;-51
2024/01/28 08:47:36;;;;;;;0.10;0.10;;;;;;;2.42;100.00;100728.63;5053509;28;20222;-52
2024/01/28 08:50:24;;;;;;;0.10;0.10;;;;;;;2.66;100.00;100724.97;5052363;28;20204;-52
2024/01/28 08:53:11;;;;;;;0.10;0.10;;;;;;;2.73;100.00;100734.53;5053726;28;20203;-52
2024/01/28 08:55:58;;;;;;;0.10;0.10;;;;;;;2.69;100.00;100731.06;5053833;28;20203;-52
2024/01/28 08:58:45;;;;;;;0.10;0.10;;;;;;;2.79;100.00;100727.50;5053630;28;20196;-53
2024/01/28 09:01:32;;;;;;;0.10;0.10;;;;;;;2.96;100.00;100722.13;5053554;28;20208;-52
2024/01/28 09:04:19;;;;;;;0.10;0.10;;;;;;;3.63;100.00;100718.91;5053105;28;20274;-53
2024/01/28 09:07:07;;;;;;;0.10;0.10;;;;;;;4.03;100.00;100719.31;5052162;28;20706;-53
2024/01/28 09:09:54;;;;;;;0.10;0.10;;;;;;;4.34;100.00;100718.91;5053365;28;20189;-53
2024/01/28 09:12:41;;;;;;;0.10;0.10;;;;;;;4.99;100.00;100710.97;5053345;28;20192;-52
2024/01/28 09:15:28;;;;;;;0.10;0.10;;;;;;;4.50;100.00;100719.59;5053288;28;20192;-53
2024/01/28 09:18:15;;;;;;;0.10;0.10;;;;;;;4.66;100.00;100713.22;5052983;28;20338;-52
2024/01/28 09:21:03;;;;;;;0.10;0.10;;;;;;;4.83;100.00;100720.88;5051889;28;20207;-53
2024/01/28 09:23:52;;;;;;;0.10;0.10;;;;;;;4.92;100.00;100719.81;5053236;28;20237;-53
2024/01/28 09:26:39;;;;;;;0.10;0.10;;;;;;;6.10;100.00;100722.09;5052750;28;20303;-53
2024/01/28 09:29:27;;;;;;;0.10;0.10;;;;;;;7.94;100.00;100726.41;5053029;28;20227;-53
2024/01/28 09:32:14;;;;;;;0.10;0.10;;;;;;;8.74;100.00;100717.88;5053001;28;20192;-53
2024/01/28 09:35:06;;;;;;;0.10;0.10;;;;;;;10.06;90.23;100706.31;5052552;28;20204;-53
2024/01/28 09:37:54;;;;;;;0.10;0.10;;;;;;;11.39;77.85;100701.94;5052785;28;20294;-54
2024/01/28 09:40:42;;;;;;;0.10;0.10;;;;;;;12.91;64.95;100690.53;5052862;28;20778;-53
2024/01/28 09:43:30;;;;;;;0.10;0.10;;;;;;;13.27;58.38;100682.56;5052652;28;20327;-55
2024/01/28 09:46:17;;;;;;;0.10;0.10;;;;;;;13.98;53.55;100675.28;5052841;28;20223;-53
2024/01/28 09:49:05;;;;;;;0.10;0.10;;;;;;;14.57;51.13;100675.63;5052494;28;20188;-54
2024/01/28 09:51:52;;;;;;;0.10;0.10;;;;;;;15.36;47.47;100676.38;5051310;28;20204;-54
2024/01/28 09:54:39;;;;;;;0.10;0.10;;;;;;;15.76;47.14;100675.81;5052711;28;20251;-54
2024/01/28 09:57:29;;;;;;;0.10;0.10;;;;;;;15.34;48.92;100680.06;5051983;28;20299;-54
2024/01/28 10:00:17;;;;;;;0.10;0.10;;;;;;;14.48;49.15;100668.19;5052443;28;20204;-54
2024/01/28 10:03:04;;;;;;;0.10;0.10;;;;;;;15.33;47.78;100665.88;5052604;28;20207;-54
2024/01/28 10:05:51;;;;;;;0.10;0.10;;;;;;;15.74;45.60;100668.75;5051415;28;20219;-54
2024/01/28 10:08:38;;;;;;;0.10;0.10;;;;;;;15.86;45.54;100664.47;5049577;28;20204;-54
2024/01/28 10:11:30;;;;;;;0.10;0.10;;;;;;;17.04;42.82;100657.78;5032063;28;20197;-55
2024/01/28 10:14:20;;;;;;;0.10;0.10;;;;;;;16.44;42.87;100658.13;5031871;28;20231;-54
2024/01/28 10:17:07;;;;;;;0.10;0.10;;;;;;;17.42;41.82;100662.34;5049442;28;20266;-54
2024/01/28 10:19:54;;;;;;;0.10;0.10;;;;;;;18.09;40.36;100654.16;5051603;28;20225;-54
2024/01/28 10:22:41;;;;;;;0.10;0.10;;;;;;;18.46;38.97;100649.69;5051193;28;20215;-54
2024/01/28 10:25:27;;;;;;;0.00;0.00;;;;;;;17.99;38.50;100640.53;5050794;28;20199;-54
2024/01/28 10:28:16;;;;;;;0.10;0.10;;;;;;;17.85;38.24;100637.97;5051387;28;20227;-54
2024/01/28 10:31:05;;;;;;;0.10;0.10;;;;;;;18.69;37.99;100648.00;5050718;28;20605;-54
2024/01/28 10:33:52;;;;;;;0.00;0.00;;;;;;;17.89;38.89;100640.34;5031632;28;20263;-54
2024/01/28 10:36:45;;;;;;;0.10;0.10;;;;;;;19.61;36.87;100645.47;5030349;28;20205;-54
2024/01/28 10:39:34;;;;;;;0.00;0.00;;;;;;;20.36;35.26;100627.88;5036099;28;20192;-54
2024/01/28 10:42:25;;;;;;;0.00;0.00;;;;;;;21.03;33.91;100627.69;5051500;28;20264;-55
2024/01/28 10:45:18;;;;;;;0.00;0.00;;;;;;;20.94;34.01;100623.97;5035778;28;20288;-55
2024/01/28 10:48:13;;;;;;;0.00;0.00;;;;;;;21.14;33.59;100614.22;5051414;28;20270;-55
2024/01/28 10:51:02;;;;;;;0.10;0.10;;;;;;;21.54;33.59;100627.00;5050130;28;20284;-55
2024/01/28 10:53:49;;;;;;;0.10;0.10;;;;;;;22.62;32.42;100611.13;5051271;28;20683;-55
2024/01/28 10:56:37;;;;;;;0.00;0.00;;;;;;;22.92;31.81;100612.88;5051277;28;20255;-54
2024/01/28 10:59:24;;;;;;;0.08;0.08;;;;;;;23.48;29.31;100606.72;5050611;28;20323;-54
2024/01/28 11:02:13;;;;;;;0.10;0.10;;;;;;;20.49;33.13;100613.31;5051410;28;20200;-54
2024/01/28 11:05:02;;;;;;;0.08;0.08;;;;;;;19.61;33.97;100605.16;5050791;28;20752;-54
2024/01/28 11:07:49;;;;;;;0.10;0.10;;;;;;;21.67;31.66;100597.97;5050629;28;20195;-54
2024/01/28 11:10:38;;;;;;;0.05;0.05;;;;;;;21.85;31.87;100590.09;5054207;28;20200;-54
2024/01/28 11:13:25;;;;;;;0.10;0.10;;;;;;;21.97;31.19;100587.16;5054333;28;20200;-55
2024/01/28 11:16:14;;;;;;;0.10;0.10;;;;;;;20.70;32.97;100585.59;5054662;28;20675;-54
2024/01/28 11:19:05;;;;;;;0.00;0.00;;;;;;;21.70;31.53;100582.34;5055188;28;20219;-54
2024/01/28 11:21:58;;;;;;;0.08;0.08;;;;;;;19.70;34.62;100588.28;5054103;28;20204;-54
2024/01/28 11:24:49;;;;;;;0.10;0.10;;;;;;;20.68;33.21;100577.66;5055427;28;20196;-54
2024/01/28 11:27:38;;;;;;;0.08;0.08;;;;;;;20.83;33.08;100562.88;5054745;28;20253;-54
2024/01/28 11:30:26;;;;;;;0.00;0.00;;;;;;;20.76;32.13;100564.41;5055184;28;20387;-54
2024/01/28 11:33:14;;;;;;;0.00;0.00;;;;;;;20.38;32.37;100564.03;5054815;28;20246;-54
2024/01/28 11:36:03;;;;;;;0.10;0.10;;;;;;;19.34;33.74;100565.13;5033973;28;20684;-54
2024/01/28 11:39:02;;;;;;;0.10;0.10;;;;;;;19.69;34.53;100561.53;5035046;28;20303;-54
2024/01/28 11:41:50;;;;;;;0.10;0.10;;;;;;;20.16;33.36;100557.69;5034142;28;20196;-54
2024/01/28 11:44:38;;;;;;;0.10;0.10;;;;;;;19.71;34.00;100551.50;5046269;28;20754;-54
2024/01/28 11:47:30;;;;;;;0.03;0.03;;;;;;;19.90;34.05;100551.75;5052335;28;20204;-54
2024/01/28 11:50:17;;;;;;;0.10;0.10;;;;;;;21.70;31.68;100550.00;5051888;28;20212;-54
2024/01/28 11:53:05;;;;;;;0.00;0.00;;;;;;;21.89;31.03;100540.25;5051257;28;20203;-54
2024/01/28 11:55:53;;;;;;;0.10;0.10;;;;;;;21.73;30.75;100543.50;5054219;28;20355;-54
2024/01/28 11:58:40;;;;;;;0.08;0.08;;;;;;;21.92;31.16;100534.63;5053452;28;20340;-54
2024/01/28 12:01:28;;;;;;;0.10;0.10;;;;;;;23.03;29.55;100534.34;5053807;28;20287;-54
2024/01/28 12:04:14;;;;;;;0.10;0.10;;;;;;;23.91;28.95;100519.56;5053224;28;20332;-54
2024/01/28 12:07:01;;;;;;;0.10;0.10;;;;;;;22.31;30.05;100516.69;5050564;28;20244;-55
2024/01/28 12:09:50;;;;;;;0.10;0.10;;;;;;;22.93;29.94;100518.13;5053535;28;20215;-55
2024/01/28 12:12:40;;;;;;;0.10;0.10;;;;;;;24.24;29.16;100518.09;5053350;28;20200;-54
2024/01/28 12:15:27;;;;;;;0.00;0.00;;;;;;;24.19;28.67;100501.44;5053730;28;20307;-55
2024/01/28 12:18:14;;;;;;;0.00;0.00;;;;;;;24.79;28.13;100497.13;5053555;28;20282;-55
2024/01/28 12:21:01;;;;;;;0.00;0.00;;;;;;;24.87;28.16;100484.66;5051051;28;20259;-55
2024/01/28 12:23:52;;;;;;;0.00;0.00;;;;;;;25.38;27.04;100491.97;5053268;28;20243;-56
2024/01/28 12:26:39;;;;;;;0.00;0.00;;;;;;;25.55;27.11;100488.34;5053471;28;20203;-55
2024/01/28 12:29:27;;;;;;;0.10;0.10;;;;;;;25.29;27.37;100488.38;5052866;28;20375;-55
2024/01/28 12:32:14;;;;;;;0.00;0.00;;;;;;;24.71;27.15;100486.25;5053210;28;20192;-55
2024/01/28 12:35:04;;;;;;;0.00;0.00;;;;;;;26.20;26.65;100479.59;5052700;28;20196;-55
2024/01/28 12:37:50;;;;;;;0.00;0.00;;;;;;;25.48;26.85;100479.16;5052408;28;20204;-55
2024/01/28 12:40:37;;;;;;;0.00;0.00;;;;;;;23.55;28.46;100478.00;5051420;28;20282;-55
2024/01/28 12:43:25;;;;;;;0.00;0.00;;;;;;;25.16;28.02;100478.94;5052538;28;20199;-55
2024/01/28 12:46:13;;;;;;;0.00;0.00;;;;;;;27.50;25.29;100471.41;5053112;28;20204;-55
2024/01/28 12:49:00;;;;;;;0.00;0.00;;;;;;;27.25;25.79;100470.66;5052940;28;20200;-55
2024/01/28 12:51:47;;;;;;;0.00;0.00;;;;;;;27.85;24.58;100463.81;5031269;28;20205;-55
2024/01/28 12:54:33;;;;;;;0.00;0.00;;;;;;;28.74;23.56;100448.72;5032743;28;20201;-55